sensor_id;sensor_type;location;lat;lon;timestamp;P1;durP1;ratioP1;P2;durP2;ratioP2
17310;SDS011;8773;43.300;0.394;2023-07-31T00:02:01;5.60;;;5.10;;
17310;SDS011;8773;43.300;0.394;2023-07-31T00:04:30;6.22;;;5.53;;
17310;SDS011;8773;43.300;0.394;2023-07-31T00:06:57;5.05;;;4.65;;
17310;SDS011;8773;43.300;0.394;2023-07-31T00:09:25;4.78;;;4.25;;
17310;SDS011;8773;43.300;0.394;2023-07-31T00:11:52;6.40;;;4.93;;
17310;SDS011;8773;43.300;0.394;2023-07-31T00:14:20;5.72;;;5.22;;
17310;SDS011;8773;43.300;0.394;2023-07-31T00:16:48;5.75;;;4.65;;
17310;SDS011;8773;43.300;0.394;2023-07-31T00:19:18;5.60;;;5.05;;
17310;SDS011;8773;43.300;0.394;2023-07-31T00:21:47;5.45;;;4.85;;
17310;SDS011;8773;43.300;0.394;2023-07-31T00:24:14;4.82;;;4.35;;
17310;SDS011;8773;43.300;0.394;2023-07-31T00:26:42;8.48;;;4.80;;
17310;SDS011;8773;43.300;0.394;2023-07-31T00:29:10;6.15;;;4.75;;
17310;SDS011;8773;43.300;0.394;2023-07-31T00:31:37;4.80;;;4.40;;
17310;SDS011;8773;43.300;0.394;2023-07-31T00:34:05;5.10;;;4.50;;
17310;SDS011;8773;43.300;0.394;2023-07-31T00:36:32;4.85;;;4.45;;
17310;SDS011;8773;43.300;0.394;2023-07-31T00:39:01;4.80;;;4.30;;
17310;SDS011;8773;43.300;0.394;2023-07-31T00:41:29;4.90;;;4.50;;
17310;SDS011;8773;43.300;0.394;2023-07-31T00:43:56;4.65;;;4.15;;
17310;SDS011;8773;43.300;0.394;2023-07-31T00:46:24;4.45;;;4.05;;
17310;SDS011;8773;43.300;0.394;2023-07-31T00:48:51;6.70;;;4.68;;
17310;SDS011;8773;43.300;0.394;2023-07-31T00:51:19;4.28;;;3.88;;
17310;SDS011;8773;43.300;0.394;2023-07-31T00:53:46;5.82;;;4.22;;
17310;SDS011;8773;43.300;0.394;2023-07-31T00:56:15;4.43;;;4.13;;
17310;SDS011;8773;43.300;0.394;2023-07-31T00:58:43;6.47;;;4.43;;
17310;SDS011;8773;43.300;0.394;2023-07-31T01:01:11;4.88;;;4.13;;
17310;SDS011;8773;43.300;0.394;2023-07-31T01:03:38;4.43;;;4.03;;
17310;SDS011;8773;43.300;0.394;2023-07-31T01:06:09;4.63;;;4.13;;
17310;SDS011;8773;43.300;0.394;2023-07-31T01:08:43;4.40;;;4.00;;
17310;SDS011;8773;43.300;0.394;2023-07-31T01:11:24;4.60;;;4.20;;
17310;SDS011;8773;43.300;0.394;2023-07-31T01:13:55;4.43;;;4.03;;
17310;SDS011;8773;43.300;0.394;2023-07-31T01:16:24;4.45;;;4.05;;
17310;SDS011;8773;43.300;0.394;2023-07-31T01:18:52;5.05;;;4.38;;
17310;SDS011;8773;43.300;0.394;2023-07-31T01:21:28;4.60;;;4.20;;
17310;SDS011;8773;43.300;0.394;2023-07-31T01:24:20;5.38;;;4.35;;
17310;SDS011;8773;43.300;0.394;2023-07-31T01:26:53;4.20;;;3.90;;
17310;SDS011;8773;43.300;0.394;2023-07-31T01:29:29;6.35;;;4.00;;
17310;SDS011;8773;43.300;0.394;2023-07-31T01:32:04;4.60;;;4.30;;
17310;SDS011;8773;43.300;0.394;2023-07-31T01:34:33;4.13;;;3.72;;
17310;SDS011;8773;43.300;0.394;2023-07-31T01:37:02;4.28;;;4.00;;
17310;SDS011;8773;43.300;0.394;2023-07-31T01:39:30;5.40;;;4.65;;
17310;SDS011;8773;43.300;0.394;2023-07-31T01:41:59;4.53;;;4.03;;
17310;SDS011;8773;43.300;0.394;2023-07-31T01:44:27;3.97;;;3.67;;
17310;SDS011;8773;43.300;0.394;2023-07-31T01:46:54;4.28;;;3.88;;
17310;SDS011;8773;43.300;0.394;2023-07-31T01:49:22;5.53;;;4.40;;
17310;SDS011;8773;43.300;0.394;2023-07-31T01:51:50;4.35;;;4.05;;
17310;SDS011;8773;43.300;0.394;2023-07-31T01:54:17;5.82;;;4.15;;
17310;SDS011;8773;43.300;0.394;2023-07-31T01:56:45;5.78;;;4.22;;
17310;SDS011;8773;43.300;0.394;2023-07-31T01:59:14;5.68;;;3.95;;
17310;SDS011;8773;43.300;0.394;2023-07-31T02:01:41;3.90;;;3.53;;
17310;SDS011;8773;43.300;0.394;2023-07-31T02:04:09;4.47;;;3.92;;
17310;SDS011;8773;43.300;0.394;2023-07-31T02:06:38;4.70;;;4.10;;
17310;SDS011;8773;43.300;0.394;2023-07-31T02:09:06;5.40;;;4.13;;
17310;SDS011;8773;43.300;0.394;2023-07-31T02:11:34;4.88;;;4.05;;
17310;SDS011;8773;43.300;0.394;2023-07-31T02:14:01;5.90;;;4.22;;
17310;SDS011;8773;43.300;0.394;2023-07-31T02:16:30;4.65;;;4.32;;
17310;SDS011;8773;43.300;0.394;2023-07-31T02:18:58;4.22;;;3.85;;
17310;SDS011;8773;43.300;0.394;2023-07-31T02:21:25;4.85;;;3.90;;
17310;SDS011;8773;43.300;0.394;2023-07-31T02:23:53;4.50;;;4.10;;
17310;SDS011;8773;43.300;0.394;2023-07-31T02:26:20;4.10;;;3.80;;
17310;SDS011;8773;43.300;0.394;2023-07-31T02:28:48;5.30;;;4.25;;
17310;SDS011;8773;43.300;0.394;2023-07-31T02:31:15;4.10;;;3.80;;
17310;SDS011;8773;43.300;0.394;2023-07-31T02:33:46;4.10;;;3.20;;
17310;SDS011;8773;43.300;0.394;2023-07-31T02:36:14;4.72;;;3.80;;
17310;SDS011;8773;43.300;0.394;2023-07-31T02:38:42;5.35;;;3.58;;
17310;SDS011;8773;43.300;0.394;2023-07-31T02:41:09;4.95;;;3.70;;
17310;SDS011;8773;43.300;0.394;2023-07-31T02:43:36;7.13;;;4.18;;
17310;SDS011;8773;43.300;0.394;2023-07-31T02:46:04;5.22;;;3.97;;
17310;SDS011;8773;43.300;0.394;2023-07-31T02:48:32;3.58;;;3.28;;
17310;SDS011;8773;43.300;0.394;2023-07-31T02:51:01;4.50;;;4.10;;
17310;SDS011;8773;43.300;0.394;2023-07-31T02:53:28;3.83;;;3.45;;
17310;SDS011;8773;43.300;0.394;2023-07-31T02:55:56;4.65;;;3.97;;
17310;SDS011;8773;43.300;0.394;2023-07-31T02:58:23;3.88;;;3.47;;
17310;SDS011;8773;43.300;0.394;2023-07-31T03:00:51;5.72;;;4.25;;
17310;SDS011;8773;43.300;0.394;2023-07-31T03:03:18;4.40;;;3.20;;
17310;SDS011;8773;43.300;0.394;2023-07-31T03:05:46;4.32;;;3.92;;
17310;SDS011;8773;43.300;0.394;2023-07-31T03:08:15;4.45;;;4.13;;
17310;SDS011;8773;43.300;0.394;2023-07-31T03:10:43;4.32;;;3.92;;
17310;SDS011;8773;43.300;0.394;2023-07-31T03:13:10;4.35;;;3.90;;
17310;SDS011;8773;43.300;0.394;2023-07-31T03:15:38;5.63;;;4.05;;
17310;SDS011;8773;43.300;0.394;2023-07-31T03:18:08;4.13;;;3.83;;
17310;SDS011;8773;43.300;0.394;2023-07-31T03:20:36;4.60;;;4.20;;
17310;SDS011;8773;43.300;0.394;2023-07-31T03:23:04;5.50;;;4.15;;
17310;SDS011;8773;43.300;0.394;2023-07-31T03:25:32;4.65;;;4.18;;
17310;SDS011;8773;43.300;0.394;2023-07-31T03:28:00;4.85;;;4.55;;
17310;SDS011;8773;43.300;0.394;2023-07-31T03:30:28;4.20;;;3.88;;
17310;SDS011;8773;43.300;0.394;2023-07-31T03:32:55;4.43;;;3.95;;
17310;SDS011;8773;43.300;0.394;2023-07-31T03:35:23;4.78;;;4.10;;
17310;SDS011;8773;43.300;0.394;2023-07-31T03:37:51;4.88;;;4.38;;
17310;SDS011;8773;43.300;0.394;2023-07-31T03:40:18;4.18;;;3.80;;
17310;SDS011;8773;43.300;0.394;2023-07-31T03:42:47;4.63;;;4.07;;
17310;SDS011;8773;43.300;0.394;2023-07-31T03:45:15;4.15;;;3.85;;
17310;SDS011;8773;43.300;0.394;2023-07-31T03:47:42;5.20;;;4.45;;
17310;SDS011;8773;43.300;0.394;2023-07-31T03:50:10;4.45;;;4.13;;
17310;SDS011;8773;43.300;0.394;2023-07-31T03:52:38;4.97;;;4.57;;
17310;SDS011;8773;43.300;0.394;2023-07-31T03:55:05;6.28;;;4.88;;
17310;SDS011;8773;43.300;0.394;2023-07-31T03:57:33;5.85;;;5.30;;
17310;SDS011;8773;43.300;0.394;2023-07-31T04:00:02;5.00;;;4.60;;
17310;SDS011;8773;43.300;0.394;2023-07-31T04:02:30;6.10;;;5.50;;
17310;SDS011;8773;43.300;0.394;2023-07-31T04:04:58;6.15;;;5.40;;
17310;SDS011;8773;43.300;0.394;2023-07-31T04:07:26;9.18;;;5.40;;
17310;SDS011;8773;43.300;0.394;2023-07-31T04:09:53;7.35;;;5.90;;
17310;SDS011;8773;43.300;0.394;2023-07-31T04:12:21;5.95;;;5.45;;
17310;SDS011;8773;43.300;0.394;2023-07-31T04:14:49;5.65;;;5.15;;
17310;SDS011;8773;43.300;0.394;2023-07-31T04:17:18;6.65;;;5.60;;
17310;SDS011;8773;43.300;0.394;2023-07-31T04:19:46;5.78;;;5.30;;
17310;SDS011;8773;43.300;0.394;2023-07-31T04:22:16;5.50;;;5.10;;
17310;SDS011;8773;43.300;0.394;2023-07-31T04:24:44;6.05;;;5.38;;
17310;SDS011;8773;43.300;0.394;2023-07-31T04:27:12;6.20;;;5.60;;
17310;SDS011;8773;43.300;0.394;2023-07-31T04:29:39;5.22;;;4.75;;
17310;SDS011;8773;43.300;0.394;2023-07-31T04:32:07;5.40;;;4.90;;
17310;SDS011;8773;43.300;0.394;2023-07-31T04:34:36;5.43;;;4.80;;
17310;SDS011;8773;43.300;0.394;2023-07-31T04:37:03;5.95;;;5.38;;
17310;SDS011;8773;43.300;0.394;2023-07-31T04:39:31;5.38;;;4.97;;
17310;SDS011;8773;43.300;0.394;2023-07-31T04:41:59;8.65;;;5.70;;
17310;SDS011;8773;43.300;0.394;2023-07-31T04:44:26;6.05;;;5.45;;
17310;SDS011;8773;43.300;0.394;2023-07-31T04:46:54;6.53;;;5.45;;
17310;SDS011;8773;43.300;0.394;2023-07-31T04:49:21;7.35;;;5.80;;
17310;SDS011;8773;43.300;0.394;2023-07-31T04:51:50;5.43;;;4.97;;
17310;SDS011;8773;43.300;0.394;2023-07-31T04:54:18;5.82;;;5.10;;
17310;SDS011;8773;43.300;0.394;2023-07-31T04:56:45;6.15;;;5.40;;
17310;SDS011;8773;43.300;0.394;2023-07-31T04:59:13;6.47;;;5.72;;
17310;SDS011;8773;43.300;0.394;2023-07-31T05:01:41;6.65;;;5.55;;
17310;SDS011;8773;43.300;0.394;2023-07-31T05:04:08;6.80;;;5.57;;
17310;SDS011;8773;43.300;0.394;2023-07-31T05:06:36;6.20;;;5.75;;
17310;SDS011;8773;43.300;0.394;2023-07-31T05:09:05;9.45;;;5.70;;
17310;SDS011;8773;43.300;0.394;2023-07-31T05:11:33;6.20;;;5.20;;
17310;SDS011;8773;43.300;0.394;2023-07-31T05:14:01;6.88;;;5.30;;
17310;SDS011;8773;43.300;0.394;2023-07-31T05:16:28;7.55;;;5.53;;
17310;SDS011;8773;43.300;0.394;2023-07-31T05:18:56;7.57;;;5.88;;
17310;SDS011;8773;43.300;0.394;2023-07-31T05:21:24;7.03;;;5.30;;
17310;SDS011;8773;43.300;0.394;2023-07-31T05:23:51;7.35;;;5.47;;
17310;SDS011;8773;43.300;0.394;2023-07-31T05:26:21;6.53;;;5.30;;
17310;SDS011;8773;43.300;0.394;2023-07-31T05:28:48;6.45;;;5.82;;
17310;SDS011;8773;43.300;0.394;2023-07-31T05:31:16;6.15;;;5.55;;
17310;SDS011;8773;43.300;0.394;2023-07-31T05:33:43;6.40;;;5.38;;
17310;SDS011;8773;43.300;0.394;2023-07-31T05:36:11;5.68;;;5.13;;
17310;SDS011;8773;43.300;0.394;2023-07-31T05:38:38;5.72;;;5.22;;
17310;SDS011;8773;43.300;0.394;2023-07-31T05:41:09;7.07;;;5.07;;
17310;SDS011;8773;43.300;0.394;2023-07-31T05:43:38;5.95;;;5.00;;
17310;SDS011;8773;43.300;0.394;2023-07-31T05:46:06;5.80;;;5.13;;
17310;SDS011;8773;43.300;0.394;2023-07-31T05:48:33;5.63;;;5.10;;
17310;SDS011;8773;43.300;0.394;2023-07-31T05:51:01;6.80;;;4.63;;
17310;SDS011;8773;43.300;0.394;2023-07-31T05:53:29;6.28;;;5.05;;
17310;SDS011;8773;43.300;0.394;2023-07-31T05:55:56;7.85;;;4.70;;
17310;SDS011;8773;43.300;0.394;2023-07-31T05:58:24;6.78;;;5.05;;
17310;SDS011;8773;43.300;0.394;2023-07-31T06:00:53;6.10;;;5.03;;
17310;SDS011;8773;43.300;0.394;2023-07-31T06:03:21;6.72;;;5.50;;
17310;SDS011;8773;43.300;0.394;2023-07-31T06:05:48;7.15;;;5.38;;
17310;SDS011;8773;43.300;0.394;2023-07-31T06:08:16;6.18;;;5.45;;
17310;SDS011;8773;43.300;0.394;2023-07-31T06:10:43;5.30;;;4.80;;
17310;SDS011;8773;43.300;0.394;2023-07-31T06:13:11;5.40;;;4.90;;
17310;SDS011;8773;43.300;0.394;2023-07-31T06:15:38;5.15;;;4.65;;
17310;SDS011;8773;43.300;0.394;2023-07-31T06:18:07;5.70;;;5.15;;
17310;SDS011;8773;43.300;0.394;2023-07-31T06:20:35;5.45;;;4.93;;
17310;SDS011;8773;43.300;0.394;2023-07-31T06:23:02;8.15;;;4.90;;
17310;SDS011;8773;43.300;0.394;2023-07-31T06:25:30;6.45;;;4.90;;
17310;SDS011;8773;43.300;0.394;2023-07-31T06:27:57;7.13;;;4.82;;
17310;SDS011;8773;43.300;0.394;2023-07-31T06:30:25;5.30;;;4.85;;
17310;SDS011;8773;43.300;0.394;2023-07-31T06:32:53;5.55;;;5.03;;
17310;SDS011;8773;43.300;0.394;2023-07-31T06:35:21;6.10;;;5.50;;
17310;SDS011;8773;43.300;0.394;2023-07-31T06:37:49;9.25;;;5.47;;
17310;SDS011;8773;43.300;0.394;2023-07-31T06:40:16;5.07;;;4.35;;
17310;SDS011;8773;43.300;0.394;2023-07-31T06:42:44;5.45;;;4.88;;
17310;SDS011;8773;43.300;0.394;2023-07-31T06:45:12;5.43;;;4.88;;
17310;SDS011;8773;43.300;0.394;2023-07-31T06:47:39;5.28;;;4.78;;
17310;SDS011;8773;43.300;0.394;2023-07-31T06:50:07;5.57;;;5.05;;
17310;SDS011;8773;43.300;0.394;2023-07-31T06:52:37;5.07;;;4.55;;
17310;SDS011;8773;43.300;0.394;2023-07-31T06:55:15;5.25;;;4.75;;
17310;SDS011;8773;43.300;0.394;2023-07-31T06:57:44;4.88;;;4.53;;
17310;SDS011;8773;43.300;0.394;2023-07-31T07:00:12;4.95;;;4.55;;
17310;SDS011;8773;43.300;0.394;2023-07-31T07:02:39;4.85;;;4.45;;
17310;SDS011;8773;43.300;0.394;2023-07-31T07:05:07;5.88;;;4.93;;
17310;SDS011;8773;43.300;0.394;2023-07-31T07:07:37;4.47;;;4.07;;
17310;SDS011;8773;43.300;0.394;2023-07-31T07:10:08;4.97;;;4.50;;
17310;SDS011;8773;43.300;0.394;2023-07-31T07:12:38;4.63;;;4.22;;
17310;SDS011;8773;43.300;0.394;2023-07-31T07:15:06;6.18;;;4.40;;
17310;SDS011;8773;43.300;0.394;2023-07-31T07:17:34;5.60;;;4.40;;
17310;SDS011;8773;43.300;0.394;2023-07-31T07:20:02;5.35;;;4.43;;
17310;SDS011;8773;43.300;0.394;2023-07-31T07:22:29;5.07;;;4.30;;
17310;SDS011;8773;43.300;0.394;2023-07-31T07:25:01;4.80;;;4.40;;
17310;SDS011;8773;43.300;0.394;2023-07-31T07:27:29;4.63;;;4.25;;
17310;SDS011;8773;43.300;0.394;2023-07-31T07:29:56;4.43;;;4.03;;
17310;SDS011;8773;43.300;0.394;2023-07-31T07:32:24;4.07;;;3.78;;
17310;SDS011;8773;43.300;0.394;2023-07-31T07:34:52;4.50;;;4.10;;
17310;SDS011;8773;43.300;0.394;2023-07-31T07:37:19;6.60;;;4.93;;
17310;SDS011;8773;43.300;0.394;2023-07-31T07:39:47;5.10;;;4.60;;
17310;SDS011;8773;43.300;0.394;2023-07-31T07:42:16;4.50;;;4.10;;
17310;SDS011;8773;43.300;0.394;2023-07-31T07:44:44;5.78;;;4.28;;
17310;SDS011;8773;43.300;0.394;2023-07-31T07:47:12;7.43;;;4.40;;
17310;SDS011;8773;43.300;0.394;2023-07-31T07:49:40;4.70;;;4.30;;
17310;SDS011;8773;43.300;0.394;2023-07-31T07:52:07;4.50;;;4.07;;
17310;SDS011;8773;43.300;0.394;2023-07-31T07:54:35;7.70;;;4.20;;
17310;SDS011;8773;43.300;0.394;2023-07-31T07:57:03;5.20;;;4.25;;
17310;SDS011;8773;43.300;0.394;2023-07-31T07:59:32;3.95;;;3.63;;
17310;SDS011;8773;43.300;0.394;2023-07-31T08:02:00;6.10;;;3.88;;
17310;SDS011;8773;43.300;0.394;2023-07-31T08:04:27;4.90;;;3.85;;
17310;SDS011;8773;43.300;0.394;2023-07-31T08:06:55;3.47;;;3.17;;
17310;SDS011;8773;43.300;0.394;2023-07-31T08:09:23;3.80;;;3.55;;
17310;SDS011;8773;43.300;0.394;2023-07-31T08:11:50;3.42;;;3.22;;
17310;SDS011;8773;43.300;0.394;2023-07-31T08:14:18;4.07;;;3.63;;
17310;SDS011;8773;43.300;0.394;2023-07-31T08:16:47;3.13;;;2.92;;
17310;SDS011;8773;43.300;0.394;2023-07-31T08:19:17;2.97;;;2.25;;
17310;SDS011;8773;43.300;0.394;2023-07-31T08:21:45;2.95;;;2.67;;
17310;SDS011;8773;43.300;0.394;2023-07-31T08:24:13;2.70;;;2.50;;
17310;SDS011;8773;43.300;0.394;2023-07-31T08:26:42;2.45;;;2.35;;
17310;SDS011;8773;43.300;0.394;2023-07-31T08:29:09;3.10;;;2.90;;
17310;SDS011;8773;43.300;0.394;2023-07-31T08:31:37;2.50;;;2.40;;
17310;SDS011;8773;43.300;0.394;2023-07-31T08:34:06;2.90;;;2.60;;
17310;SDS011;8773;43.300;0.394;2023-07-31T08:36:35;2.97;;;2.78;;
17310;SDS011;8773;43.300;0.394;2023-07-31T08:39:02;2.92;;;2.72;;
17310;SDS011;8773;43.300;0.394;2023-07-31T08:41:30;3.00;;;2.70;;
17310;SDS011;8773;43.300;0.394;2023-07-31T08:43:58;2.92;;;2.80;;
17310;SDS011;8773;43.300;0.394;2023-07-31T08:46:29;3.38;;;3.08;;
17310;SDS011;8773;43.300;0.394;2023-07-31T08:48:58;3.40;;;3.20;;
17310;SDS011;8773;43.300;0.394;2023-07-31T08:51:27;3.75;;;3.45;;
17310;SDS011;8773;43.300;0.394;2023-07-31T08:53:56;3.67;;;3.38;;
17310;SDS011;8773;43.300;0.394;2023-07-31T08:56:24;3.30;;;3.10;;
17310;SDS011;8773;43.300;0.394;2023-07-31T08:58:53;3.95;;;3.65;;
17310;SDS011;8773;43.300;0.394;2023-07-31T09:01:22;3.88;;;3.63;;
17310;SDS011;8773;43.300;0.394;2023-07-31T09:03:50;3.78;;;3.47;;
17310;SDS011;8773;43.300;0.394;2023-07-31T09:06:21;3.90;;;3.60;;
17310;SDS011;8773;43.300;0.394;2023-07-31T09:08:53;3.97;;;3.67;;
17310;SDS011;8773;43.300;0.394;2023-07-31T09:11:21;4.38;;;3.97;;
17310;SDS011;8773;43.300;0.394;2023-07-31T09:13:50;3.38;;;3.15;;
17310;SDS011;8773;43.300;0.394;2023-07-31T09:16:18;3.83;;;3.63;;
17310;SDS011;8773;43.300;0.394;2023-07-31T09:18:55;4.13;;;3.72;;
17310;SDS011;8773;43.300;0.394;2023-07-31T09:21:23;4.00;;;3.70;;
17310;SDS011;8773;43.300;0.394;2023-07-31T09:23:53;4.32;;;3.92;;
17310;SDS011;8773;43.300;0.394;2023-07-31T09:29:07;4.38;;;4.07;;
17310;SDS011;8773;43.300;0.394;2023-07-31T09:31:46;5.00;;;4.60;;
17310;SDS011;8773;43.300;0.394;2023-07-31T09:34:14;3.85;;;3.65;;
17310;SDS011;8773;43.300;0.394;2023-07-31T09:36:42;4.32;;;4.03;;
17310;SDS011;8773;43.300;0.394;2023-07-31T09:39:12;4.72;;;4.32;;
17310;SDS011;8773;43.300;0.394;2023-07-31T09:41:42;4.68;;;4.07;;
17310;SDS011;8773;43.300;0.394;2023-07-31T09:44:10;4.40;;;4.00;;
17310;SDS011;8773;43.300;0.394;2023-07-31T09:46:38;4.57;;;4.28;;
17310;SDS011;8773;43.300;0.394;2023-07-31T09:49:07;4.28;;;3.92;;
17310;SDS011;8773;43.300;0.394;2023-07-31T09:51:35;4.40;;;4.10;;
17310;SDS011;8773;43.300;0.394;2023-07-31T09:54:14;4.97;;;4.57;;
17310;SDS011;8773;43.300;0.394;2023-07-31T09:56:43;4.28;;;4.03;;
17310;SDS011;8773;43.300;0.394;2023-07-31T09:59:12;4.68;;;4.38;;
17310;SDS011;8773;43.300;0.394;2023-07-31T10:01:41;4.93;;;4.55;;
17310;SDS011;8773;43.300;0.394;2023-07-31T10:04:09;4.18;;;3.88;;
17310;SDS011;8773;43.300;0.394;2023-07-31T10:06:38;4.95;;;4.55;;
17310;SDS011;8773;43.300;0.394;2023-07-31T10:09:08;5.63;;;5.15;;
17310;SDS011;8773;43.300;0.394;2023-07-31T10:11:38;5.15;;;4.65;;
17310;SDS011;8773;43.300;0.394;2023-07-31T10:14:10;4.30;;;3.90;;
17310;SDS011;8773;43.300;0.394;2023-07-31T10:16:38;4.70;;;4.40;;
17310;SDS011;8773;43.300;0.394;2023-07-31T10:19:06;4.70;;;4.30;;
17310;SDS011;8773;43.300;0.394;2023-07-31T10:21:34;5.05;;;4.55;;
17310;SDS011;8773;43.300;0.394;2023-07-31T10:24:04;5.03;;;4.63;;
17310;SDS011;8773;43.300;0.394;2023-07-31T10:26:32;4.68;;;4.28;;
17310;SDS011;8773;43.300;0.394;2023-07-31T10:29:01;5.10;;;4.70;;
17310;SDS011;8773;43.300;0.394;2023-07-31T10:31:29;4.60;;;4.20;;
17310;SDS011;8773;43.300;0.394;2023-07-31T10:33:57;4.70;;;4.40;;
17310;SDS011;8773;43.300;0.394;2023-07-31T10:36:25;4.43;;;4.13;;
17310;SDS011;8773;43.300;0.394;2023-07-31T10:38:53;4.72;;;4.43;;
17310;SDS011;8773;43.300;0.394;2023-07-31T10:41:27;5.20;;;4.80;;
17310;SDS011;8773;43.300;0.394;2023-07-31T10:43:57;4.72;;;4.32;;
17310;SDS011;8773;43.300;0.394;2023-07-31T10:46:26;4.15;;;3.88;;
17310;SDS011;8773;43.300;0.394;2023-07-31T10:48:57;4.28;;;4.07;;
17310;SDS011;8773;43.300;0.394;2023-07-31T10:51:26;4.30;;;4.03;;
17310;SDS011;8773;43.300;0.394;2023-07-31T10:54:10;4.57;;;4.18;;
17310;SDS011;8773;43.300;0.394;2023-07-31T10:56:38;4.55;;;4.22;;
17310;SDS011;8773;43.300;0.394;2023-07-31T10:59:06;4.10;;;3.80;;
17310;SDS011;8773;43.300;0.394;2023-07-31T11:04:24;4.50;;;4.20;;
17310;SDS011;8773;43.300;0.394;2023-07-31T11:06:55;5.07;;;4.20;;
17310;SDS011;8773;43.300;0.394;2023-07-31T11:09:24;4.95;;;4.55;;
17310;SDS011;8773;43.300;0.394;2023-07-31T11:11:54;4.63;;;4.32;;
17310;SDS011;8773;43.300;0.394;2023-07-31T11:14:22;4.72;;;4.32;;
17310;SDS011;8773;43.300;0.394;2023-07-31T11:16:50;4.53;;;4.20;;
17310;SDS011;8773;43.300;0.394;2023-07-31T11:19:22;4.30;;;4.00;;
17310;SDS011;8773;43.300;0.394;2023-07-31T11:21:50;3.90;;;3.70;;
17310;SDS011;8773;43.300;0.394;2023-07-31T11:24:19;4.03;;;3.63;;
17310;SDS011;8773;43.300;0.394;2023-07-31T11:26:48;4.63;;;4.20;;
17310;SDS011;8773;43.300;0.394;2023-07-31T11:29:17;4.10;;;3.80;;
17310;SDS011;8773;43.300;0.394;2023-07-31T11:31:45;4.60;;;4.20;;
17310;SDS011;8773;43.300;0.394;2023-07-31T11:34:14;4.35;;;3.83;;
17310;SDS011;8773;43.300;0.394;2023-07-31T11:36:47;4.63;;;3.70;;
17310;SDS011;8773;43.300;0.394;2023-07-31T11:39:21;3.97;;;3.67;;
17310;SDS011;8773;43.300;0.394;2023-07-31T11:41:49;3.92;;;3.63;;
17310;SDS011;8773;43.300;0.394;2023-07-31T11:44:17;4.10;;;3.80;;
17310;SDS011;8773;43.300;0.394;2023-07-31T11:46:56;4.65;;;3.50;;
17310;SDS011;8773;43.300;0.394;2023-07-31T11:49:24;3.90;;;3.58;;
17310;SDS011;8773;43.300;0.394;2023-07-31T11:51:54;3.83;;;3.53;;
17310;SDS011;8773;43.300;0.394;2023-07-31T11:54:22;3.80;;;3.60;;
17310;SDS011;8773;43.300;0.394;2023-07-31T11:56:49;5.45;;;3.60;;
17310;SDS011;8773;43.300;0.394;2023-07-31T11:59:17;3.95;;;3.60;;
17310;SDS011;8773;43.300;0.394;2023-07-31T12:01:45;4.53;;;4.07;;
17310;SDS011;8773;43.300;0.394;2023-07-31T12:04:13;4.32;;;3.85;;
17310;SDS011;8773;43.300;0.394;2023-07-31T12:06:40;4.00;;;3.70;;
17310;SDS011;8773;43.300;0.394;2023-07-31T12:09:10;4.00;;;3.70;;
17310;SDS011;8773;43.300;0.394;2023-07-31T12:11:43;3.50;;;3.20;;
17310;SDS011;8773;43.300;0.394;2023-07-31T12:14:21;4.25;;;3.85;;
17310;SDS011;8773;43.300;0.394;2023-07-31T12:16:52;3.92;;;3.58;;
17310;SDS011;8773;43.300;0.394;2023-07-31T12:19:21;3.50;;;3.20;;
17310;SDS011;8773;43.300;0.394;2023-07-31T12:21:49;3.85;;;3.60;;
17310;SDS011;8773;43.300;0.394;2023-07-31T12:24:19;3.78;;;3.42;;
17310;SDS011;8773;43.300;0.394;2023-07-31T12:26:47;3.55;;;3.35;;
17310;SDS011;8773;43.300;0.394;2023-07-31T12:29:16;3.45;;;3.25;;
17310;SDS011;8773;43.300;0.394;2023-07-31T12:31:43;3.25;;;3.05;;
17310;SDS011;8773;43.300;0.394;2023-07-31T12:34:17;4.25;;;3.85;;
17310;SDS011;8773;43.300;0.394;2023-07-31T12:36:45;3.63;;;3.20;;
17310;SDS011;8773;43.300;0.394;2023-07-31T12:39:13;3.60;;;3.40;;
17310;SDS011;8773;43.300;0.394;2023-07-31T12:41:42;3.67;;;3.38;;
17310;SDS011;8773;43.300;0.394;2023-07-31T12:44:10;3.75;;;3.45;;
17310;SDS011;8773;43.300;0.394;2023-07-31T12:46:37;3.50;;;3.30;;
17310;SDS011;8773;43.300;0.394;2023-07-31T12:49:05;3.50;;;3.30;;
17310;SDS011;8773;43.300;0.394;2023-07-31T12:51:33;3.60;;;3.30;;
17310;SDS011;8773;43.300;0.394;2023-07-31T12:54:00;3.50;;;3.30;;
17310;SDS011;8773;43.300;0.394;2023-07-31T12:56:28;3.25;;;3.05;;
17310;SDS011;8773;43.300;0.394;2023-07-31T12:58:57;3.30;;;3.10;;
17310;SDS011;8773;43.300;0.394;2023-07-31T13:01:25;3.70;;;3.40;;
17310;SDS011;8773;43.300;0.394;2023-07-31T13:03:52;3.50;;;3.20;;
17310;SDS011;8773;43.300;0.394;2023-07-31T13:06:20;2.97;;;2.88;;
17310;SDS011;8773;43.300;0.394;2023-07-31T13:08:47;3.38;;;3.08;;
17310;SDS011;8773;43.300;0.394;2023-07-31T13:11:15;3.45;;;3.15;;
17310;SDS011;8773;43.300;0.394;2023-07-31T13:13:43;3.17;;;2.90;;
17310;SDS011;8773;43.300;0.394;2023-07-31T13:16:12;3.67;;;3.47;;
17310;SDS011;8773;43.300;0.394;2023-07-31T13:18:39;3.15;;;2.95;;
17310;SDS011;8773;43.300;0.394;2023-07-31T13:21:10;3.78;;;3.40;;
17310;SDS011;8773;43.300;0.394;2023-07-31T13:23:38;3.42;;;3.22;;
17310;SDS011;8773;43.300;0.394;2023-07-31T13:26:05;3.33;;;3.13;;
17310;SDS011;8773;43.300;0.394;2023-07-31T13:28:33;3.58;;;3.28;;
17310;SDS011;8773;43.300;0.394;2023-07-31T13:31:00;3.50;;;3.30;;
17310;SDS011;8773;43.300;0.394;2023-07-31T13:33:29;3.63;;;3.33;;
17310;SDS011;8773;43.300;0.394;2023-07-31T13:36:03;3.13;;;2.92;;
17310;SDS011;8773;43.300;0.394;2023-07-31T13:38:31;3.53;;;3.25;;
17310;SDS011;8773;43.300;0.394;2023-07-31T13:40:58;3.85;;;2.90;;
17310;SDS011;8773;43.300;0.394;2023-07-31T13:43:26;3.50;;;3.30;;
17310;SDS011;8773;43.300;0.394;2023-07-31T13:45:54;3.88;;;3.60;;
17310;SDS011;8773;43.300;0.394;2023-07-31T13:48:21;3.47;;;3.25;;
17310;SDS011;8773;43.300;0.394;2023-07-31T13:50:50;3.20;;;3.00;;
17310;SDS011;8773;43.300;0.394;2023-07-31T13:53:18;3.13;;;2.92;;
17310;SDS011;8773;43.300;0.394;2023-07-31T13:55:45;3.78;;;3.00;;
17310;SDS011;8773;43.300;0.394;2023-07-31T13:58:13;3.55;;;3.30;;
17310;SDS011;8773;43.300;0.394;2023-07-31T14:00:40;3.10;;;2.88;;
17310;SDS011;8773;43.300;0.394;2023-07-31T14:03:11;3.28;;;3.08;;
17310;SDS011;8773;43.300;0.394;2023-07-31T14:05:38;3.40;;;2.88;;
17310;SDS011;8773;43.300;0.394;2023-07-31T14:08:07;2.45;;;2.33;;
17310;SDS011;8773;43.300;0.394;2023-07-31T14:10:35;3.95;;;2.95;;
17310;SDS011;8773;43.300;0.394;2023-07-31T14:13:03;3.38;;;3.10;;
17310;SDS011;8773;43.300;0.394;2023-07-31T14:15:30;3.17;;;2.97;;
17310;SDS011;8773;43.300;0.394;2023-07-31T14:17:58;3.40;;;3.10;;
17310;SDS011;8773;43.300;0.394;2023-07-31T14:20:28;3.58;;;3.10;;
17310;SDS011;8773;43.300;0.394;2023-07-31T14:22:55;3.15;;;2.85;;
17310;SDS011;8773;43.300;0.394;2023-07-31T14:25:24;3.15;;;2.97;;
17310;SDS011;8773;43.300;0.394;2023-07-31T14:27:52;3.33;;;3.13;;
17310;SDS011;8773;43.300;0.394;2023-07-31T14:30:20;3.45;;;3.22;;
17310;SDS011;8773;43.300;0.394;2023-07-31T14:32:48;4.30;;;3.50;;
17310;SDS011;8773;43.300;0.394;2023-07-31T14:35:15;3.75;;;3.50;;
17310;SDS011;8773;43.300;0.394;2023-07-31T14:37:43;3.30;;;3.10;;
17310;SDS011;8773;43.300;0.394;2023-07-31T14:40:12;3.70;;;3.40;;
17310;SDS011;8773;43.300;0.394;2023-07-31T14:42:41;4.00;;;3.60;;
17310;SDS011;8773;43.300;0.394;2023-07-31T14:45:11;3.40;;;3.20;;
17310;SDS011;8773;43.300;0.394;2023-07-31T14:47:39;4.05;;;3.78;;
17310;SDS011;8773;43.300;0.394;2023-07-31T14:50:07;4.30;;;3.90;;
17310;SDS011;8773;43.300;0.394;2023-07-31T14:52:36;4.05;;;3.75;;
17310;SDS011;8773;43.300;0.394;2023-07-31T14:55:04;4.50;;;4.20;;
17310;SDS011;8773;43.300;0.394;2023-07-31T14:57:32;4.32;;;4.13;;
17310;SDS011;8773;43.300;0.394;2023-07-31T15:00:02;3.83;;;3.63;;
17310;SDS011;8773;43.300;0.394;2023-07-31T15:02:33;3.90;;;3.70;;
17310;SDS011;8773;43.300;0.394;2023-07-31T15:05:01;4.53;;;4.18;;
17310;SDS011;8773;43.300;0.394;2023-07-31T15:07:29;3.90;;;3.70;;
17310;SDS011;8773;43.300;0.394;2023-07-31T15:09:56;3.97;;;3.67;;
17310;SDS011;8773;43.300;0.394;2023-07-31T15:12:24;3.78;;;3.50;;
17310;SDS011;8773;43.300;0.394;2023-07-31T15:14:53;3.45;;;3.25;;